Flight Track Log - Related Links

Times and Time Zones

All times are in EDT time to prevent confusion due to time zone crossing. See the N129CG flight status page for this flight to view local times or setup timezone preferences in your user account.

Time Position Orientation Groundspeed Altitude Reporting Facility
EDT Latitude Longitude Course Direction KTS MPH feet Rate Location/Type
Sun 08:48:23 AM 25.6400 -80.4267 85° East 116 133 400  Level Miami Center
Sun 08:49:36 AM 25.6428 -80.3944 85° East 102 117 1,200 672 Climbing Miami Center
Sun 08:50:37 AM 25.6436 -80.3578 89° East 118 136 1,900 393 Climbing Miami Center
Sun 08:51:38 AM 25.6508 -80.3186 78° East 133 153 2,000 49 Climbing Miami Center
Sun 08:52:39 AM 25.6539 -80.2797 85° East 131 151 2,000  Level Miami Center
Sun 08:53:40 AM 25.6592 -80.2383 82° East 130 150 2,000  Level Miami Center
Sun 08:54:47 AM 25.6622 -80.1944 86° East 126 145 2,000 45 Level Miami Center
Sun 08:55:54 AM 25.6694 -80.1508 80° East 128 147 2,100 234 Climbing Miami Center
Sun 08:56:55 AM 25.6722 -80.1119 85° East 127 146 2,500 443 Climbing Miami Center
Sun 08:57:56 AM 25.6775 -80.0706 82° East 132 152 3,000 549 Climbing Miami Center
Sun 08:59:39 AM 25.6831 -80.0061 85° East 134 154 4,000 663 Climbing Miami Center
Sun 09:00:39 AM 25.6881 -79.9694 81° East 128 147 4,800 550 Climbing Miami Center
Sun 09:01:39 AM 25.6908 -79.9278 86° East 128 147 5,100 100 Climbing Miami Center
Sun 09:02:39 AM 25.6939 -79.8842 86° East 128 147 5,000 -50 Descending Miami Center
Sun 09:03:39 AM 25.6928 -79.8403 92° East 133 153 5,000  Level Miami Center
Sun 09:04:39 AM 25.6936 -79.7967 89° East 138 159 5,000  Level Miami Center
Sun 09:05:39 AM 25.6944 -79.7528 89° East 138 159 5,000  Level Miami Center
Sun 09:06:39 AM 25.6933 -79.7089 92° East 138 159 5,000  Level Miami Center
Sun 09:07:39 AM 25.6939 -79.6675 89° East 138 159 5,000  Level Miami Center
Sun 09:08:39 AM 25.6989 -79.6239 83° East 138 159 5,000 -200 Level Miami Center
Sun 09:09:39 AM 25.6978 -79.5778 92° East 143 165 4,600 -400 Descending Miami Center

Login

Don't have an account? Register now (free) for customized features, flight alerts, and more!